createdAt,value
2023-03-02T00:01:20.769Z,96782.81
2023-03-02T00:03:25.245Z,96785.19
2023-03-02T00:05:30.518Z,96788.84
2023-03-02T00:07:36.587Z,96791.72
2023-03-02T00:09:41.543Z,96784.88
2023-03-02T00:11:46.213Z,96786.97
2023-03-02T00:13:50.751Z,96786.44
2023-03-02T00:15:57.755Z,96791.94
2023-03-02T00:18:02.348Z,96785.38
2023-03-02T00:20:11.179Z,96776.41
2023-03-02T00:22:15.664Z,96778.72
2023-03-02T00:24:20.065Z,96773.22
2023-03-02T00:26:24.415Z,96778.19
2023-03-02T00:28:29.691Z,96784.72
2023-03-02T00:30:34.124Z,96776.53
2023-03-02T00:32:41.130Z,96783.34
2023-03-02T00:34:45.535Z,96787.28
2023-03-02T00:36:50.775Z,96783.31
2023-03-02T00:38:55.260Z,96778.56
2023-03-02T00:40:59.844Z,96784.06
2023-03-02T00:43:04.194Z,96785.09
2023-03-02T00:45:09.689Z,96786.94
2023-03-02T00:47:14.118Z,96784.56
2023-03-02T00:49:21.333Z,96778.50
2023-03-02T00:51:25.767Z,96768.00
2023-03-02T00:53:30.169Z,96782.19
2023-03-02T00:55:34.546Z,96781.38
2023-03-02T00:57:39.033Z,96783.22
2023-03-02T00:59:44.101Z,96776.16
2023-03-02T01:02:09.553Z,96781.94
2023-03-02T01:04:14.379Z,96777.47
2023-03-02T01:06:22.239Z,96770.63
2023-03-02T01:08:26.710Z,96766.72
2023-03-02T01:10:31.179Z,96763.28
2023-03-02T01:12:35.829Z,96764.31
2023-03-02T01:14:40.664Z,96763.00
2023-03-02T01:16:45.017Z,96760.38
2023-03-02T01:18:49.460Z,96758.00
2023-03-02T01:21:02.934Z,96757.19
2023-03-02T01:23:09.939Z,96753.00
2023-03-02T01:25:14.710Z,96758.78
2023-03-02T01:27:19.387Z,96754.56
2023-03-02T01:29:23.891Z,96746.16
2023-03-02T01:31:29.082Z,96744.56
2023-03-02T01:33:33.564Z,96745.84
2023-03-02T01:35:38.159Z,96741.66
2023-03-02T01:37:42.705Z,96743.75
2023-03-02T01:39:49.909Z,96739.56
2023-03-02T01:41:55.185Z,96732.47
2023-03-02T01:44:00.111Z,96730.63
2023-03-02T01:46:06.186Z,96727.22
2023-03-02T01:48:28.663Z,96725.63
2023-03-02T01:50:33.783Z,96721.44
2023-03-02T01:52:39.650Z,96715.38
2023-03-02T01:54:49.704Z,96711.16
2023-03-02T01:56:59.870Z,96713.00
2023-03-02T01:59:08.314Z,96717.47
2023-03-02T02:01:15.599Z,96713.78
2023-03-02T02:03:23.286Z,96718.25
2023-03-02T02:05:28.332Z,96720.09
2023-03-02T02:07:32.854Z,96720.09
2023-03-02T02:09:39.120Z,96712.47
2023-03-02T02:11:44.826Z,96712.75
2023-03-02T02:13:52.119Z,96715.38
2023-03-02T02:15:57.081Z,96710.13
2023-03-02T02:18:02.473Z,96712.75
2023-03-02T02:20:10.059Z,96707.50
2023-03-02T02:22:14.763Z,96705.66
2023-03-02T02:24:23.683Z,96706.44
2023-03-02T02:26:35.687Z,96703.81
2023-03-02T02:28:42.367Z,96699.38
2023-03-02T02:30:48.598Z,96695.69
2023-03-02T02:32:54.132Z,96699.91
2023-03-02T02:35:00.951Z,96693.06
2023-03-02T02:37:08.512Z,96699.13
2023-03-02T02:39:18.005Z,96684.16
2023-03-02T02:41:24.672Z,96698.06
2023-03-02T02:43:33.620Z,96689.41
2023-03-02T02:45:38.643Z,96694.41
2023-03-02T02:47:43.702Z,96688.13
2023-03-02T02:49:49.504Z,96692.59
2023-03-02T02:51:53.985Z,96692.59
2023-03-02T02:54:00.222Z,96680.25
2023-03-02T02:56:09.827Z,96678.41
2023-03-02T02:58:23.045Z,96681.03
2023-03-02T03:00:30.254Z,96687.88
2023-03-02T03:02:36.928Z,96680.78
2023-03-02T03:04:41.390Z,96675.53
2023-03-02T03:06:52.576Z,96670.03
2023-03-02T03:09:01.118Z,96676.09
2023-03-02T03:11:19.428Z,96681.06
2023-03-02T03:13:23.970Z,96688.13
2023-03-02T03:15:31.416Z,96678.44
2023-03-02T03:17:36.079Z,96682.63
2023-03-02T03:19:41.438Z,96686.31
2023-03-02T03:21:45.843Z,96677.63
2023-03-02T03:23:50.268Z,96686.56
2023-03-02T03:25:54.954Z,96686.56
2023-03-02T03:27:59.355Z,96680.50
2023-03-02T03:30:04.512Z,96678.16
2023-03-02T03:32:14.228Z,96674.75
2023-03-02T03:34:19.319Z,96673.41
2023-03-02T03:36:24.024Z,96669.19
2023-03-02T03:38:28.407Z,96672.88
2023-03-02T03:40:34.386Z,96671.28
2023-03-02T03:42:40.401Z,96679.41
2023-03-02T03:44:44.974Z,96673.09
2023-03-02T03:46:49.397Z,96675.97
2023-03-02T03:48:57.162Z,96677.81
2023-03-02T03:51:02.330Z,96672.81
2023-03-02T03:53:06.813Z,96677.25
2023-03-02T03:55:11.706Z,96672.81
2023-03-02T03:57:16.308Z,96672.00
2023-03-02T03:59:22.526Z,96673.84
2023-03-02T04:01:35.152Z,96674.06
2023-03-02T04:03:40.154Z,96673.53
2023-03-02T04:05:47.362Z,96677.19
2023-03-02T04:07:52.210Z,96669.06
2023-03-02T04:10:03.429Z,96667.47
2023-03-02T04:12:11.468Z,96664.84
2023-03-02T04:14:18.762Z,96661.19
2023-03-02T04:16:23.196Z,96667.22
2023-03-02T04:18:27.649Z,96663.56
2023-03-02T04:20:32.596Z,96663.56
2023-03-02T04:22:39.630Z,96674.63
2023-03-02T04:24:44.150Z,96669.38
2023-03-02T04:26:49.746Z,96668.09
2023-03-02T04:28:54.579Z,96661.81
2023-03-02T04:30:59.474Z,96664.19
2023-03-02T04:33:04.376Z,96650.03
2023-03-02T04:35:11.018Z,96653.97
2023-03-02T04:37:16.082Z,96657.13
2023-03-02T04:39:23.684Z,96661.31
2023-03-02T04:41:29.708Z,96656.06
2023-03-02T04:43:34.148Z,96654.25
2023-03-02T04:45:38.641Z,96652.41
2023-03-02T04:47:43.394Z,96654.25
2023-03-02T04:49:50.006Z,96656.34
2023-03-02T04:51:54.369Z,96658.16
2023-03-02T04:53:59.544Z,96659.75
2023-03-02T04:56:06.821Z,96656.06
2023-03-02T04:58:11.840Z,96660.28
2023-03-02T05:00:17.026Z,96656.63
2023-03-02T05:02:21.591Z,96655.59
2023-03-02T05:04:26.514Z,96655.59
2023-03-02T05:06:31.245Z,96658.22
2023-03-02T05:08:35.751Z,96643.50
2023-03-02T05:10:40.105Z,96645.88
2023-03-02T05:12:58.323Z,96647.47
2023-03-02T05:15:02.706Z,96647.22
2023-03-02T05:17:07.113Z,96654.59
2023-03-02T05:19:13.383Z,96648.31
2023-03-02T05:21:18.611Z,96654.06
2023-03-02T05:23:28.708Z,96646.97
2023-03-02T05:25:34.835Z,96643.56
2023-03-02T05:27:39.787Z,96640.94
2023-03-02T05:29:46.733Z,96643.84
2023-03-02T05:31:51.528Z,96649.84
2023-03-02T05:33:56.011Z,96650.66
2023-03-02T05:36:00.874Z,96655.91
2023-03-02T05:38:05.324Z,96649.09
2023-03-02T05:40:11.829Z,96656.94
2023-03-02T05:42:16.210Z,96649.84
2023-03-02T05:44:20.574Z,96654.06
2023-03-02T05:46:27.707Z,96665.09
2023-03-02T05:48:32.975Z,96659.06
2023-03-02T05:50:37.383Z,96657.22
2023-03-02T05:52:41.890Z,96660.66
2023-03-02T05:54:46.226Z,96662.47
2023-03-02T05:56:50.609Z,96662.22
2023-03-02T05:58:54.954Z,96660.66
2023-03-02T06:00:59.360Z,96661.44
2023-03-02T06:03:06.605Z,96656.19
2023-03-02T06:05:12.958Z,96659.59
2023-03-02T06:07:17.326Z,96659.06
2023-03-02T06:09:22.415Z,96659.06
2023-03-02T06:11:26.745Z,96664.06
2023-03-02T06:13:31.193Z,96656.44
2023-03-02T06:15:35.669Z,96661.69
2023-03-02T06:17:40.063Z,96660.91
2023-03-02T06:19:47.004Z,96656.19
2023-03-02T06:21:51.421Z,96664.84
2023-03-02T06:23:55.753Z,96663.81
2023-03-02T06:26:00.455Z,96661.97
2023-03-02T06:28:04.834Z,96672.22
2023-03-02T06:30:10.959Z,96680.88
2023-03-02T06:32:15.646Z,96674.59
2023-03-02T06:34:20.111Z,96672.50
2023-03-02T06:36:27.169Z,96683.00
2023-03-02T06:38:31.651Z,96674.88
2023-03-02T06:40:36.132Z,96675.41
2023-03-02T06:42:41.182Z,96680.66
2023-03-02T06:44:45.569Z,96683.81
2023-03-02T06:46:49.998Z,96686.72
2023-03-02T06:48:55.081Z,96685.44
2023-03-02T06:50:59.905Z,96681.50
2023-03-02T06:53:06.905Z,96677.34
2023-03-02T06:55:12.243Z,96682.88
2023-03-02T06:57:17.174Z,96683.69
2023-03-02T06:59:21.558Z,96684.75
2023-03-02T07:01:25.956Z,96683.22
2023-03-02T07:03:30.454Z,96681.41
2023-03-02T07:05:35.971Z,96686.66
2023-03-02T07:07:41.559Z,96685.09
2023-03-02T07:09:48.523Z,96685.38
2023-03-02T07:11:53.372Z,96691.44
2023-03-02T07:13:57.704Z,96688.31
2023-03-02T07:16:02.495Z,96683.88
2023-03-02T07:18:07.062Z,96679.19
2023-03-02T07:20:12.217Z,96681.53
2023-03-02T07:22:16.595Z,96676.06
2023-03-02T07:24:22.454Z,96685.78
2023-03-02T07:26:29.363Z,96695.53
2023-03-02T07:28:33.833Z,96688.97
2023-03-02T07:30:38.306Z,96691.09
2023-03-02T07:32:42.676Z,96696.63
2023-03-02T07:34:47.246Z,96702.16
2023-03-02T07:36:51.746Z,96697.94
2023-03-02T07:38:56.357Z,96696.91
2023-03-02T07:41:01.254Z,96699.31
2023-03-02T07:43:08.718Z,96693.00
2023-03-02T07:45:14.644Z,96697.47
2023-03-02T07:47:18.980Z,96697.22
2023-03-02T07:49:23.380Z,96708.25
2023-03-02T07:51:27.721Z,96694.53
2023-03-02T07:53:32.282Z,96692.16
2023-03-02T07:55:36.809Z,96694.25
2023-03-02T07:57:41.206Z,96700.28
2023-03-02T07:59:48.118Z,96699.47
2023-03-02T08:01:52.977Z,96703.94
2023-03-02T08:03:57.567Z,96706.81
2023-03-02T08:06:02.098Z,96699.13
2023-03-02T08:08:06.660Z,96698.28
2023-03-02T08:10:12.015Z,96703.28
2023-03-02T08:12:16.452Z,96702.47
2023-03-02T08:14:20.865Z,96704.28
2023-03-02T08:16:27.810Z,96699.50
2023-03-02T08:18:32.675Z,96703.94
2023-03-02T08:20:37.069Z,96707.59
2023-03-02T08:22:41.540Z,96713.91
2023-03-02T08:24:45.881Z,96706.19
2023-03-02T08:26:50.286Z,96701.91
2023-03-02T08:28:54.654Z,96703.69
2023-03-02T08:30:59.440Z,96698.84
2023-03-02T08:33:07.287Z,96698.19
2023-03-02T08:35:12.949Z,96709.97
2023-03-02T08:37:17.330Z,96696.91
2023-03-02T08:39:23.585Z,96693.09
2023-03-02T08:41:28.397Z,96698.00
2023-03-02T08:43:33.044Z,96693.91
2023-03-02T08:45:37.678Z,96688.25
2023-03-02T08:47:42.065Z,96686.78
2023-03-02T08:49:49.982Z,96694.81
2023-03-02T08:51:56.469Z,96691.19
2023-03-02T08:54:00.866Z,96700.00
2023-03-02T08:56:07.417Z,96700.84
2023-03-02T08:58:11.807Z,96695.31
2023-03-02T09:00:17.288Z,96684.50
2023-03-02T09:02:21.657Z,96687.69
2023-03-02T09:04:26.105Z,96692.75
2023-03-02T09:06:34.004Z,96695.66
2023-03-02T09:08:38.470Z,96686.84
2023-03-02T09:10:42.887Z,96689.41
2023-03-02T09:12:47.385Z,96690.41
2023-03-02T09:14:51.801Z,96687.94
2023-03-02T09:16:56.289Z,96693.41
2023-03-02T09:19:00.809Z,96683.47
2023-03-02T09:21:05.292Z,96698.78
2023-03-02T09:23:13.685Z,96691.09
2023-03-02T09:25:18.380Z,96686.28
2023-03-02T09:27:23.034Z,96695.47
2023-03-02T09:29:27.457Z,96691.53
2023-03-02T09:31:32.431Z,96687.56
2023-03-02T09:33:37.449Z,96693.72
2023-03-02T09:35:42.065Z,96696.91
2023-03-02T09:37:46.467Z,96698.19
2023-03-02T09:39:53.499Z,96696.84
2023-03-02T09:42:09.176Z,96699.81
2023-03-02T09:44:27.349Z,96699.50
2023-03-02T09:46:34.954Z,96695.13
2023-03-02T09:48:42.926Z,96699.78
2023-03-02T09:50:54.950Z,96696.44
2023-03-02T09:53:10.644Z,96710.69
2023-03-02T09:55:19.669Z,96699.97
2023-03-02T09:57:25.484Z,96703.66
2023-03-02T09:59:31.833Z,96702.00
2023-03-02T10:01:38.883Z,96693.78
2023-03-02T10:03:48.146Z,96699.50
2023-03-02T10:05:54.123Z,96699.47
2023-03-02T10:07:59.499Z,96703.19
2023-03-02T10:10:05.946Z,96706.78
2023-03-02T10:12:27.174Z,96697.34
2023-03-02T10:14:36.016Z,96695.09
2023-03-02T10:16:45.933Z,96697.16
2023-03-02T10:18:52.877Z,96699.50
2023-03-02T10:20:59.118Z,96693.03
2023-03-02T10:23:07.992Z,96696.63
2023-03-02T10:25:20.552Z,96700.84
2023-03-02T10:27:29.170Z,96708.22
2023-03-02T10:29:42.516Z,96697.97
2023-03-02T10:31:49.730Z,96692.63
2023-03-02T10:33:54.134Z,96694.97
2023-03-02T10:36:01.171Z,96686.66
2023-03-02T10:38:14.070Z,96688.53
2023-03-02T10:40:31.723Z,96695.88
2023-03-02T10:42:40.404Z,96689.56
2023-03-02T10:44:48.339Z,96681.69
2023-03-02T10:46:53.906Z,96691.81
2023-03-02T10:49:01.374Z,96679.03
2023-03-02T10:51:06.248Z,96683.09
2023-03-02T10:53:18.512Z,96680.53
2023-03-02T10:55:22.927Z,96681.44
2023-03-02T10:57:32.155Z,96665.50
2023-03-02T10:59:47.124Z,96668.19
2023-03-02T11:02:00.477Z,96665.84
2023-03-02T11:04:05.478Z,96671.06
2023-03-02T11:06:20.832Z,96669.06
2023-03-02T11:08:26.241Z,96662.91
2023-03-02T11:10:34.084Z,96662.91
2023-03-02T11:12:39.774Z,96662.59
2023-03-02T11:14:47.007Z,96659.16
2023-03-02T11:16:51.487Z,96669.19
2023-03-02T11:18:58.335Z,96648.59
2023-03-02T11:21:04.610Z,96653.59
2023-03-02T11:23:17.035Z,96658.28
2023-03-02T11:25:28.562Z,96656.38
2023-03-02T11:27:36.441Z,96653.38
2023-03-02T11:29:44.740Z,96651.16
2023-03-02T11:31:53.652Z,96649.41
2023-03-02T11:34:15.641Z,96645.75
2023-03-02T11:36:24.438Z,96646.28
2023-03-02T11:38:30.176Z,96649.88
2023-03-02T11:40:36.794Z,96643.53
2023-03-02T11:42:44.041Z,96644.41
2023-03-02T11:44:48.982Z,96641.06
2023-03-02T11:46:59.736Z,96642.31
2023-03-02T11:49:06.402Z,96634.75
2023-03-02T11:51:15.133Z,96634.75
2023-03-02T11:53:22.021Z,96632.50
2023-03-02T11:55:28.713Z,96630.28
2023-03-02T11:57:37.478Z,96643.31
2023-03-02T11:59:43.235Z,96632.28
2023-03-02T12:01:49.187Z,96634.31
2023-03-02T12:03:56.617Z,96619.13
2023-03-02T12:06:06.712Z,96627.28
2023-03-02T12:08:26.612Z,96629.28
2023-03-02T12:10:35.106Z,96623.25
2023-03-02T12:12:44.220Z,96630.59
2023-03-02T12:14:48.604Z,96618.78
2023-03-02T12:16:53.977Z,96617.69
2023-03-02T12:19:01.003Z,96622.34
2023-03-02T12:21:07.169Z,96614.00
2023-03-02T12:23:12.808Z,96612.53
2023-03-02T12:25:28.523Z,96619.78
2023-03-02T12:27:38.081Z,96616.00
2023-03-02T12:29:43.528Z,96629.38
2023-03-02T12:31:49.382Z,96615.22
2023-03-02T12:33:54.812Z,96624.34
2023-03-02T12:36:15.206Z,96631.28
2023-03-02T12:38:26.460Z,96627.38
2023-03-02T12:40:42.035Z,96612.41
2023-03-02T12:42:58.259Z,96618.88
2023-03-02T12:45:05.928Z,96611.19
2023-03-02T12:47:17.685Z,96612.31
2023-03-02T12:49:40.003Z,96610.28
2023-03-02T12:51:50.475Z,96609.09
2023-03-02T12:54:04.566Z,96608.97
2023-03-02T12:56:10.322Z,96607.09
2023-03-02T12:58:20.652Z,96612.09
2023-03-02T13:00:26.948Z,96610.09
2023-03-02T13:02:31.847Z,96613.88
2023-03-02T13:04:36.513Z,96607.75
2023-03-02T13:06:42.094Z,96604.63
2023-03-02T13:08:50.969Z,96604.63
2023-03-02T13:10:56.257Z,96601.19
2023-03-02T13:13:01.266Z,96599.63
2023-03-02T13:15:06.034Z,96609.22
2023-03-02T13:17:23.035Z,96601.94
2023-03-02T13:19:27.985Z,96601.19
2023-03-02T13:21:33.653Z,96594.25
2023-03-02T13:23:38.261Z,96599.63
2023-03-02T13:25:52.695Z,96597.72
2023-03-02T13:27:58.114Z,96602.63
2023-03-02T13:30:11.518Z,96594.81
2023-03-02T13:32:20.390Z,96583.69
2023-03-02T13:34:25.817Z,96587.47
2023-03-02T13:36:31.871Z,96588.13
2023-03-02T13:38:38.392Z,96592.72
2023-03-02T13:40:44.855Z,96585.44
2023-03-02T13:42:52.072Z,96589.38
2023-03-02T13:44:56.414Z,96589.78
2023-03-02T13:47:01.614Z,96586.78
2023-03-02T13:49:10.809Z,96586.47
2023-03-02T13:51:18.265Z,96583.81
2023-03-02T13:53:24.359Z,96587.25
2023-03-02T13:55:29.063Z,96592.13
2023-03-02T13:57:34.838Z,96592.94
2023-03-02T13:59:42.234Z,96583.00
2023-03-02T14:01:46.708Z,96589.47
2023-03-02T14:03:51.178Z,96576.09
2023-03-02T14:05:56.304Z,96579.09
2023-03-02T14:08:01.358Z,96578.66
2023-03-02T14:10:05.869Z,96578.22
2023-03-02T14:12:10.275Z,96580.78
2023-03-02T14:14:16.452Z,96587.56
2023-03-02T14:16:24.334Z,96581.03
2023-03-02T14:18:33.806Z,96573.31
2023-03-02T14:20:38.252Z,96579.31
2023-03-02T14:22:44.575Z,96576.22
2023-03-02T14:24:49.504Z,96579.22
2023-03-02T14:26:53.859Z,96577.22
2023-03-02T14:29:05.475Z,96572.53
2023-03-02T14:31:11.796Z,96577.00
2023-03-02T14:33:20.204Z,96576.88
2023-03-02T14:35:25.383Z,96569.50
2023-03-02T14:37:31.536Z,96566.69
2023-03-02T14:39:37.183Z,96566.25
2023-03-02T14:41:52.798Z,96565.81
2023-03-02T14:43:58.451Z,96563.03
2023-03-02T14:46:02.952Z,96567.47
2023-03-02T14:48:07.513Z,96563.91
2023-03-02T14:50:16.502Z,96564.91
2023-03-02T14:52:24.710Z,96558.97
2023-03-02T14:54:29.716Z,96559.97
2023-03-02T14:56:34.523Z,96552.81
2023-03-02T14:58:39.390Z,96562.16
2023-03-02T15:00:43.840Z,96559.69
2023-03-02T15:02:48.462Z,96560.59
2023-03-02T15:04:56.556Z,96550.41
2023-03-02T15:07:03.950Z,96555.50
2023-03-02T15:09:08.741Z,96557.94
2023-03-02T15:11:13.103Z,96561.44
2023-03-02T15:13:17.751Z,96564.97
2023-03-02T15:15:23.099Z,96558.25
2023-03-02T15:17:27.646Z,96562.53
2023-03-02T15:19:32.404Z,96565.75
2023-03-02T15:21:37.377Z,96560.47
2023-03-02T15:23:44.909Z,96567.13
2023-03-02T15:25:49.341Z,96572.19
2023-03-02T15:27:54.149Z,96566.25
2023-03-02T15:29:58.504Z,96571.31
2023-03-02T15:32:02.933Z,96572.94
2023-03-02T15:34:07.591Z,96567.78
2023-03-02T15:36:12.113Z,96570.59
2023-03-02T15:38:16.460Z,96567.69
2023-03-02T15:40:23.533Z,96582.25
2023-03-02T15:42:28.073Z,96579.31
2023-03-02T15:44:33.660Z,96580.91
2023-03-02T15:46:38.404Z,96576.88
2023-03-02T15:48:43.211Z,96575.47
2023-03-02T15:50:47.542Z,96578.31
2023-03-02T15:52:51.973Z,96581.16
2023-03-02T15:54:56.313Z,96579.09
2023-03-02T15:57:03.384Z,96577.41
2023-03-02T15:59:07.811Z,96587.59
2023-03-02T16:01:16.014Z,96589.78
2023-03-02T16:03:20.681Z,96578.22
2023-03-02T16:05:25.084Z,96584.97
2023-03-02T16:07:29.444Z,96587.47
2023-03-02T16:09:33.981Z,96589.22
2023-03-02T16:11:38.628Z,96587.47
2023-03-02T16:13:45.888Z,96583.09
2023-03-02T16:15:50.254Z,96592.22
2023-03-02T16:17:54.671Z,96593.63
2023-03-02T16:19:59.253Z,96594.25
2023-03-02T16:22:03.912Z,96593.00
2023-03-02T16:24:08.778Z,96595.47
2023-03-02T16:26:14.494Z,96596.44
2023-03-02T16:28:19.489Z,96595.94
2023-03-02T16:30:26.508Z,96595.78
2023-03-02T16:32:33.162Z,96600.63
2023-03-02T16:34:37.758Z,96601.09
2023-03-02T16:36:43.539Z,96600.00
2023-03-02T16:38:48.671Z,96600.50
2023-03-02T16:40:53.077Z,96602.53
2023-03-02T16:42:57.566Z,96612.53
2023-03-02T16:45:01.916Z,96611.88
2023-03-02T16:47:09.034Z,96616.56
2023-03-02T16:49:14.409Z,96611.69
2023-03-02T16:51:19.402Z,96620.59
2023-03-02T16:53:24.076Z,96614.34
2023-03-02T16:55:29.360Z,96614.97
2023-03-02T16:57:33.767Z,96622.00
2023-03-02T16:59:38.132Z,96624.03
2023-03-02T17:01:42.802Z,96623.06
2023-03-02T17:03:51.817Z,96629.00
2023-03-02T17:05:56.216Z,96628.81
2023-03-02T17:08:01.723Z,96634.44
2023-03-02T17:10:06.478Z,96632.88
2023-03-02T17:12:11.069Z,96641.16
2023-03-02T17:14:15.443Z,96637.25
2023-03-02T17:16:19.887Z,96629.91
2023-03-02T17:18:24.255Z,96641.41
2023-03-02T17:20:31.231Z,96641.84
2023-03-02T17:22:35.790Z,96640.44
2023-03-02T17:24:41.314Z,96643.97
2023-03-02T17:26:46.884Z,96647.84
2023-03-02T17:28:51.423Z,96650.97
2023-03-02T17:30:55.953Z,96649.34
2023-03-02T17:33:00.384Z,96657.72
2023-03-02T17:35:04.741Z,96653.94
2023-03-02T17:37:12.083Z,96659.06
2023-03-02T17:39:16.467Z,96655.13
2023-03-02T17:41:20.907Z,96657.00
2023-03-02T17:43:25.293Z,96668.72
2023-03-02T17:45:30.440Z,96666.38
2023-03-02T17:47:34.816Z,96673.38
2023-03-02T17:49:40.949Z,96666.09
2023-03-02T17:51:45.999Z,96671.03
2023-03-02T17:53:53.717Z,96670.66
2023-03-02T17:55:58.067Z,96666.41
2023-03-02T17:58:02.643Z,96675.31
2023-03-02T18:00:09.143Z,96671.81
2023-03-02T18:02:13.970Z,96675.94
2023-03-02T18:04:18.536Z,96674.94
2023-03-02T18:06:23.014Z,96680.38
2023-03-02T18:08:27.432Z,96678.91
2023-03-02T18:10:34.746Z,96677.94
2023-03-02T18:12:39.202Z,96679.13
2023-03-02T18:14:43.631Z,96684.81
2023-03-02T18:16:48.870Z,96689.72
2023-03-02T18:18:54.089Z,96690.59
2023-03-02T18:20:58.693Z,96691.25
2023-03-02T18:23:03.404Z,96693.03
2023-03-02T18:25:08.428Z,96710.41
2023-03-02T18:27:15.644Z,96716.47
2023-03-02T18:29:20.032Z,96715.19
2023-03-02T18:31:24.967Z,96723.81
2023-03-02T18:33:29.798Z,96730.75
2023-03-02T18:35:34.220Z,96734.38
2023-03-02T18:37:38.566Z,96735.56
2023-03-02T18:39:43.677Z,96728.34
2023-03-02T18:41:48.593Z,96731.66
2023-03-02T18:43:55.738Z,96733.13
2023-03-02T18:46:00.548Z,96749.06
2023-03-02T18:48:05.319Z,96750.53
2023-03-02T18:50:10.578Z,96749.28
2023-03-02T18:52:16.901Z,96754.59
2023-03-02T18:54:21.422Z,96755.44
2023-03-02T18:56:25.940Z,96753.41
2023-03-02T18:58:34.176Z,96753.25
2023-03-02T19:00:41.440Z,96761.28
2023-03-02T19:02:45.793Z,96755.56
2023-03-02T19:04:50.203Z,96753.22
2023-03-02T19:06:56.167Z,96763.50
2023-03-02T19:09:00.822Z,96759.94
2023-03-02T19:11:05.274Z,96753.97
2023-03-02T19:13:11.684Z,96759.84
2023-03-02T19:15:16.187Z,96761.47
2023-03-02T19:17:23.248Z,96764.38
2023-03-02T19:19:27.730Z,96771.00
2023-03-02T19:21:32.100Z,96777.59
2023-03-02T19:23:36.600Z,96777.34
2023-03-02T19:25:41.322Z,96769.72
2023-03-02T19:27:45.659Z,96772.63
2023-03-02T19:29:50.317Z,96773.72
2023-03-02T19:31:55.701Z,96769.25
2023-03-02T19:34:04.168Z,96777.97
2023-03-02T19:36:09.386Z,96779.28
2023-03-02T19:38:13.864Z,96784.53
2023-03-02T19:40:19.547Z,96796.13
2023-03-02T19:42:24.094Z,96784.81
2023-03-02T19:44:28.779Z,96798.53
2023-03-02T19:46:33.173Z,96790.59
2023-03-02T19:48:37.516Z,96795.38
2023-03-02T19:50:45.512Z,96791.41
2023-03-02T19:52:49.857Z,96791.41
2023-03-02T19:54:54.432Z,96793.25
2023-03-02T19:56:59.277Z,96796.69
2023-03-02T19:59:03.870Z,96795.13
2023-03-02T20:01:10.882Z,96799.06
2023-03-02T20:03:15.699Z,96795.91
2023-03-02T20:05:20.181Z,96801.72
2023-03-02T20:07:27.268Z,96800.66
2023-03-02T20:09:31.889Z,96809.09
2023-03-02T20:11:36.276Z,96809.09
2023-03-02T20:13:40.916Z,96814.09
2023-03-02T20:15:47.077Z,96811.47
2023-03-02T20:17:51.812Z,96809.09
2023-03-02T20:19:56.470Z,96806.72
2023-03-02T20:22:02.813Z,96808.28
2023-03-02T20:24:10.324Z,96812.50
2023-03-02T20:26:15.366Z,96813.53
2023-03-02T20:28:22.635Z,96813.81
2023-03-02T20:30:30.349Z,96811.44
2023-03-02T20:32:34.885Z,96814.59
2023-03-02T20:34:39.958Z,96822.25
2023-03-02T20:36:44.335Z,96822.75
2023-03-02T20:38:50.650Z,96825.94
2023-03-02T20:40:57.761Z,96822.22
2023-03-02T20:43:02.113Z,96822.75
2023-03-02T20:45:07.088Z,96819.84
2023-03-02T20:47:14.487Z,96824.06
2023-03-02T20:49:19.156Z,96818.78
2023-03-02T20:51:24.032Z,96825.63
2023-03-02T20:53:29.020Z,96832.50
2023-03-02T20:55:33.421Z,96830.66
2023-03-02T20:57:40.728Z,96830.66
2023-03-02T20:59:46.021Z,96827.75
2023-03-02T21:01:50.507Z,96822.75
2023-03-02T21:03:55.142Z,96832.75
2023-03-02T21:05:59.517Z,96833.25
2023-03-02T21:08:03.935Z,96830.09
2023-03-02T21:10:09.325Z,96833.00
2023-03-02T21:12:13.964Z,96825.38
2023-03-02T21:14:21.404Z,96825.06
2023-03-02T21:16:27.248Z,96830.59
2023-03-02T21:18:32.049Z,96830.84
2023-03-02T21:20:39.197Z,96830.06
2023-03-02T21:22:43.752Z,96821.16
2023-03-02T21:24:48.230Z,96824.03
2023-03-02T21:26:53.583Z,96821.66
2023-03-02T21:28:58.360Z,96822.38
2023-03-02T21:31:05.663Z,96819.50
2023-03-02T21:33:10.053Z,96819.22
2023-03-02T21:35:15.118Z,96813.19
2023-03-02T21:37:19.910Z,96816.28
2023-03-02T21:39:25.570Z,96812.88
2023-03-02T21:41:30.515Z,96818.66
2023-03-02T21:43:35.017Z,96817.34
2023-03-02T21:45:39.615Z,96816.28
2023-03-02T21:47:47.201Z,96816.56
2023-03-02T21:49:51.640Z,96817.34
2023-03-02T21:51:56.239Z,96814.97
2023-03-02T21:54:00.898Z,96818.63
2023-03-02T21:56:05.635Z,96818.13
2023-03-02T21:58:10.038Z,96822.84
2023-03-02T22:00:20.683Z,96829.41
2023-03-02T22:02:25.125Z,96829.63
2023-03-02T22:04:33.375Z,96828.03
2023-03-02T22:06:39.326Z,96828.81
2023-03-02T22:08:43.777Z,96827.72
2023-03-02T22:10:48.966Z,96831.16
2023-03-02T22:12:56.469Z,96833.75
2023-03-02T22:15:04.293Z,96832.94
2023-03-02T22:17:17.550Z,96833.47
2023-03-02T22:19:28.934Z,96832.41
2023-03-02T22:21:36.964Z,96836.09
2023-03-02T22:23:41.284Z,96838.16
2023-03-02T22:25:46.266Z,96834.75
2023-03-02T22:27:50.641Z,96830.78
2023-03-02T22:29:57.819Z,96835.22
2023-03-02T22:32:09.141Z,96834.16
2023-03-02T22:34:17.215Z,96836.50
2023-03-02T22:36:23.906Z,96833.34
2023-03-02T22:38:31.998Z,96830.97
2023-03-02T22:40:37.674Z,96838.56
2023-03-02T22:42:42.252Z,96836.69
2023-03-02T22:44:47.328Z,96841.69
2023-03-02T22:46:51.892Z,96840.91
2023-03-02T22:48:56.887Z,96841.72
2023-03-02T22:51:01.273Z,96845.66
2023-03-02T22:53:13.538Z,96837.78
2023-03-02T22:55:33.329Z,96845.41
2023-03-02T22:57:40.398Z,96840.66
2023-03-02T22:59:44.914Z,96840.66
2023-03-02T23:01:49.466Z,96850.66
2023-03-02T23:03:55.051Z,96845.13
2023-03-02T23:05:59.668Z,96839.09
2023-03-02T23:08:19.293Z,96842.00
2023-03-02T23:10:25.130Z,96844.06
2023-03-02T23:12:30.322Z,96835.91
2023-03-02T23:14:39.327Z,96839.03
2023-03-02T23:16:43.797Z,96844.78
2023-03-02T23:18:48.570Z,96832.72
2023-03-02T23:20:53.706Z,96834.53
2023-03-02T23:22:58.794Z,96839.00
2023-03-02T23:25:03.652Z,96839.75
2023-03-02T23:27:09.558Z,96834.69
2023-03-02T23:29:14.079Z,96833.41
2023-03-02T23:31:21.311Z,96833.63
2023-03-02T23:33:25.836Z,96833.88
2023-03-02T23:35:30.507Z,96829.94
2023-03-02T23:37:34.921Z,96837.81
2023-03-02T23:39:39.381Z,96836.72
2023-03-02T23:41:43.853Z,96837.75
2023-03-02T23:43:48.529Z,96838.78
2023-03-02T23:45:53.102Z,96837.72
2023-03-02T23:48:00.157Z,96839.03
2023-03-02T23:50:04.519Z,96836.91
2023-03-02T23:52:08.844Z,96838.72
2023-03-02T23:54:13.449Z,96838.72
2023-03-02T23:56:17.822Z,96847.09
2023-03-02T23:58:22.418Z,96848.41
